Saint Stephen, Minnesota
Current Conditions -  °F | °C
As of 10:53 AM on Friday 31 Oct 2014 (Local Time) from KSTC Reporting Station
Clear Clear  
Wind Chill: 28°   Ceiling: Unl
Heat Index: 34°   Visibility: 10mi
Dew Point: 19°   Wind: 7mph
Humidity: 54%   Direction: 40°NE
Pressure: 30.58"   Gusts: NA
Location:  45.7°N, 94.27°W
Report Text: KSTC 311553Z 04006KT 10SM CLR 01/M07 A3058 RMK AO2 SLP376 T00111072
Loading
Personal Weather Stations






























Interactive Weather Map
Tropical Storm Tracking
New forecast layout! Learn more

10-Day Weather Forecast

Advertisements
Track Severe Weather on mobile